Time;durP1;ratioP1;P1;durP2;ratioP2;P2;SDS_P1;SDS_P2;PMS_P1;PMS_P2;Temp;Humidity;BMP_temperature;BMP_pressure;BME280_temperature;BME280_humidity;BME280_pressure;Samples;Min_cycle;Max_cycle;Signal;HPM_P1;HPM_P2
2022/05/08 00:00:26;;;;;;;4.80;4.30;;;;;;;;;;4953086;28;20178;-74
2022/05/08 00:02:54;;;;;;;8.63;5.80;;;;;;;;;;4949183;28;20292;-74
2022/05/08 00:05:19;;;;;;;6.93;6.23;;;;;;;;;;4949972;28;20196;-73
2022/05/08 00:07:45;;;;;;;7.00;5.80;;;;;;;;;;4948828;28;20519;-74
2022/05/08 00:10:10;;;;;;;5.40;4.67;;;;;;;;;;4950953;28;20236;-74
2022/05/08 00:12:36;;;;;;;6.50;5.90;;;;;;;;;;4947022;28;20177;-74
2022/05/08 00:15:01;;;;;;;6.60;6.00;;;;;;;;;;4954708;28;20194;-74
2022/05/08 00:17:29;;;;;;;8.37;6.70;;;;;;;;;;4951190;28;20181;-74
2022/05/08 00:19:55;;;;;;;7.53;6.83;;;;;;;;;;4949979;28;20181;-73
2022/05/08 00:22:21;;;;;;;7.17;6.57;;;;;;;;;;4950961;28;20235;-74
2022/05/08 00:24:46;;;;;;;6.13;5.60;;;;;;;;;;4949936;28;20191;-74
2022/05/08 00:27:11;;;;;;;6.77;6.17;;;;;;;;;;4965385;28;20227;-73
2022/05/08 00:29:36;;;;;;;7.13;6.33;;;;;;;;;;4956925;28;20199;-74
2022/05/08 00:32:02;;;;;;;6.60;5.50;;;;;;;;;;4957762;28;20191;-73
2022/05/08 00:34:27;;;;;;;8.13;6.07;;;;;;;;;;4963480;28;20254;-73
2022/05/08 00:36:52;;;;;;;6.67;6.00;;;;;;;;;;4970669;28;20195;-73
2022/05/08 00:39:18;;;;;;;6.93;6.23;;;;;;;;;;4960525;28;20203;-73
2022/05/08 00:41:44;;;;;;;6.10;5.60;;;;;;;;;;4948882;28;20173;-74
2022/05/08 00:44:09;;;;;;;6.50;5.80;;;;;;;;;;4952484;28;20192;-73
2022/05/08 00:46:35;;;;;;;5.87;5.30;;;;;;;;;;4951820;28;20276;-74
2022/05/08 00:49:00;;;;;;;6.60;6.10;;;;;;;;;;4960303;28;20216;-73
2022/05/08 00:51:26;;;;;;;7.07;6.37;;;;;;;;;;4954225;28;20529;-74
2022/05/08 00:53:52;;;;;;;7.20;6.10;;;;;;;;;;4964253;28;20182;-74
2022/05/08 00:56:18;;;;;;;6.80;6.20;;;;;;;;;;4965965;28;20191;-73
2022/05/08 00:58:47;;;;;;;6.33;5.73;;;;;;;;;;4976343;28;20184;-73
2022/05/08 01:01:13;;;;;;;8.20;5.87;;;;;;;;;;4955004;28;20193;-74
2022/05/08 01:03:38;;;;;;;7.60;6.37;;;;;;;;;;4964339;28;20276;-73
2022/05/08 01:06:08;;;;;;;6.70;6.00;;;;;;;;;;4954605;28;20234;-74
2022/05/08 01:08:34;;;;;;;6.97;5.83;;;;;;;;;;4949953;28;20222;-74
2022/05/08 01:11:04;;;;;;;5.67;5.17;;;;;;;;;;4951993;28;20181;-73
2022/05/08 01:13:29;;;;;;;6.27;5.30;;;;;;;;;;4955379;28;20237;-74
2022/05/08 01:15:55;;;;;;;7.13;5.73;;;;;;;;;;4945916;28;20189;-74
2022/05/08 01:18:21;;;;;;;6.37;5.73;;;;;;;;;;4958379;28;20212;-73
2022/05/08 01:20:50;;;;;;;5.90;5.30;;;;;;;;;;4957259;28;20184;-73
2022/05/08 01:23:15;;;;;;;5.77;5.27;;;;;;;;;;4950477;28;20180;-74
2022/05/08 01:25:45;;;;;;;6.10;5.50;;;;;;;;;;4947908;28;20218;-73
2022/05/08 01:28:11;;;;;;;6.07;5.47;;;;;;;;;;4960834;28;20227;-74
2022/05/08 01:30:38;;;;;;;5.97;5.17;;;;;;;;;;4944817;28;20184;-74
2022/05/08 01:33:03;;;;;;;5.83;4.83;;;;;;;;;;4952675;28;20235;-73
2022/05/08 01:35:28;;;;;;;5.90;5.37;;;;;;;;;;4955027;28;20191;-74
2022/05/08 01:37:54;;;;;;;8.67;4.87;;;;;;;;;;4946999;28;20194;-74
2022/05/08 01:40:19;;;;;;;5.30;4.77;;;;;;;;;;4957276;28;20311;-74
2022/05/08 01:42:44;;;;;;;5.73;4.90;;;;;;;;;;4949888;28;20182;-74
2022/05/08 01:45:12;;;;;;;5.63;5.13;;;;;;;;;;4947458;28;20183;-74
2022/05/08 01:50:22;;;;;;;5.60;5.10;;;;;;;;;;4969503;28;20204;-74
2022/05/08 01:52:47;;;;;;;5.73;5.00;;;;;;;;;;4957679;28;20188;-74
2022/05/08 01:55:12;;;;;;;6.03;5.50;;;;;;;;;;4954438;28;20195;-74
2022/05/08 01:57:38;;;;;;;5.53;5.03;;;;;;;;;;4950751;28;20213;-74
2022/05/08 02:00:04;;;;;;;5.67;5.17;;;;;;;;;;4954280;28;20187;-74
2022/05/08 02:02:30;;;;;;;10.93;5.20;;;;;;;;;;4953268;28;20183;-74
2022/05/08 02:04:58;;;;;;;5.80;5.30;;;;;;;;;;4953358;28;20183;-73
2022/05/08 02:07:23;;;;;;;6.13;5.60;;;;;;;;;;4950473;28;20186;-74
2022/05/08 02:09:48;;;;;;;7.03;5.30;;;;;;;;;;4958054;28;20269;-74
2022/05/08 02:12:14;;;;;;;7.80;5.60;;;;;;;;;;4968629;28;20232;-73
2022/05/08 02:14:39;;;;;;;7.90;5.60;;;;;;;;;;4951519;28;20208;-74
2022/05/08 02:17:04;;;;;;;5.13;4.60;;;;;;;;;;4947726;28;20179;-74
2022/05/08 02:19:30;;;;;;;5.67;5.13;;;;;;;;;;4954477;28;20253;-74
2022/05/08 02:21:55;;;;;;;5.47;4.97;;;;;;;;;;4983345;28;20267;-74
2022/05/08 02:24:20;;;;;;;5.93;5.23;;;;;;;;;;4950459;28;20183;-73
2022/05/08 02:26:45;;;;;;;6.50;5.10;;;;;;;;;;4947986;28;20199;-74
2022/05/08 02:29:10;;;;;;;5.07;4.67;;;;;;;;;;4944904;28;20222;-74
2022/05/08 02:31:36;;;;;;;5.33;4.37;;;;;;;;;;4950830;28;20462;-73
2022/05/08 02:34:01;;;;;;;8.47;4.90;;;;;;;;;;4952555;28;20242;-74
2022/05/08 02:36:27;;;;;;;5.43;4.93;;;;;;;;;;4949563;28;20186;-74
2022/05/08 02:38:52;;;;;;;5.50;5.00;;;;;;;;;;4954860;28;20196;-74
2022/05/08 02:41:17;;;;;;;5.23;4.77;;;;;;;;;;4945954;28;20180;-74
2022/05/08 02:43:42;;;;;;;4.93;4.50;;;;;;;;;;4950521;28;20223;-73
2022/05/08 02:46:08;;;;;;;6.03;4.70;;;;;;;;;;4950893;28;20180;-74
2022/05/08 02:48:33;;;;;;;5.23;4.73;;;;;;;;;;4953590;28;20198;-74
2022/05/08 02:50:58;;;;;;;4.77;4.37;;;;;;;;;;4954053;28;20176;-73
2022/05/08 02:53:23;;;;;;;6.00;4.80;;;;;;;;;;4950930;28;20266;-74
2022/05/08 02:58:32;;;;;;;5.17;4.67;;;;;;;;;;4954182;28;20198;-73
2022/05/08 03:00:59;;;;;;;5.27;4.77;;;;;;;;;;4950069;28;20188;-74
2022/05/08 03:03:24;;;;;;;5.20;4.80;;;;;;;;;;4960029;28;20188;-74
2022/05/08 03:05:50;;;;;;;5.73;5.23;;;;;;;;;;4954589;28;20193;-73
2022/05/08 03:08:17;;;;;;;5.57;5.07;;;;;;;;;;4954009;28;20207;-74
2022/05/08 03:13:26;;;;;;;5.60;5.20;;;;;;;;;;4952890;28;20175;-74
2022/05/08 03:15:52;;;;;;;6.83;4.87;;;;;;;;;;4949374;28;20465;-75
2022/05/08 03:18:18;;;;;;;6.03;5.43;;;;;;;;;;4949205;28;20183;-73
2022/05/08 03:20:43;;;;;;;5.73;5.17;;;;;;;;;;4956813;28;20187;-74
2022/05/08 03:23:08;;;;;;;5.70;5.20;;;;;;;;;;4966806;28;20196;-74
2022/05/08 03:25:33;;;;;;;5.50;4.93;;;;;;;;;;4968245;28;20267;-74
2022/05/08 03:27:59;;;;;;;5.10;4.70;;;;;;;;;;4955981;28;20206;-73
2022/05/08 03:30:25;;;;;;;4.33;3.93;;;;;;;;;;4953913;28;20234;-74
2022/05/08 03:32:50;;;;;;;4.50;4.13;;;;;;;;;;4955693;28;20199;-73
2022/05/08 03:35:16;;;;;;;6.40;4.47;;;;;;;;;;4972951;28;20188;-74
2022/05/08 03:37:41;;;;;;;7.17;4.90;;;;;;;;;;4956013;28;20207;-73
2022/05/08 03:40:06;;;;;;;6.33;5.33;;;;;;;;;;4966111;28;20175;-73
2022/05/08 03:42:31;;;;;;;7.83;5.60;;;;;;;;;;4954295;28;20418;-73
2022/05/08 03:44:57;;;;;;;4.87;4.47;;;;;;;;;;4951003;28;20179;-74
2022/05/08 03:47:23;;;;;;;6.03;5.17;;;;;;;;;;4958154;28;20190;-74
2022/05/08 03:49:48;;;;;;;6.20;5.60;;;;;;;;;;4964580;28;20211;-74
2022/05/08 03:52:14;;;;;;;6.43;5.60;;;;;;;;;;4956310;28;20264;-74
2022/05/08 03:54:39;;;;;;;5.87;5.37;;;;;;;;;;4957036;28;20174;-74
2022/05/08 03:57:05;;;;;;;7.40;5.27;;;;;;;;;;4944727;28;20175;-74
2022/05/08 03:59:30;;;;;;;6.40;5.90;;;;;;;;;;4943152;28;20183;-74
2022/05/08 04:01:56;;;;;;;6.77;6.13;;;;;;;;;;4952520;28;20186;-73
2022/05/08 04:04:21;;;;;;;7.73;7.03;;;;;;;;;;4953135;28;20182;-74
2022/05/08 04:06:46;;;;;;;7.50;6.50;;;;;;;;;;4950235;28;20181;-73
2022/05/08 04:09:11;;;;;;;6.40;5.80;;;;;;;;;;4960650;28;20216;-73
2022/05/08 04:11:37;;;;;;;9.33;8.43;;;;;;;;;;4971498;28;20175;-73
2022/05/08 04:14:02;;;;;;;9.20;8.30;;;;;;;;;;4952521;28;20183;-74
2022/05/08 04:16:27;;;;;;;9.30;8.30;;;;;;;;;;4952408;28;20186;-74
2022/05/08 04:18:52;;;;;;;14.27;8.03;;;;;;;;;;4953083;28;20190;-74
2022/05/08 04:21:18;;;;;;;12.30;9.13;;;;;;;;;;4958226;28;20193;-74
2022/05/08 04:26:29;;;;;;;9.53;8.53;;;;;;;;;;4955883;28;20233;-74
2022/05/08 04:28:54;;;;;;;9.50;8.53;;;;;;;;;;4959148;28;20195;-74
2022/05/08 04:31:19;;;;;;;11.00;9.20;;;;;;;;;;4956263;28;20184;-74
2022/05/08 04:33:44;;;;;;;9.27;8.40;;;;;;;;;;4949695;28;20250;-74
2022/05/08 04:36:10;;;;;;;8.73;8.03;;;;;;;;;;4948385;28;20246;-74
2022/05/08 04:38:35;;;;;;;9.33;8.43;;;;;;;;;;4964922;28;20186;-73
2022/05/08 04:41:00;;;;;;;8.47;7.57;;;;;;;;;;4948244;28;20182;-74
2022/05/08 04:43:25;;;;;;;8.37;7.57;;;;;;;;;;4962883;28;20453;-74
2022/05/08 04:45:51;;;;;;;7.87;7.17;;;;;;;;;;4951616;28;20247;-73
2022/05/08 04:48:16;;;;;;;8.33;7.30;;;;;;;;;;4950953;28;20286;-74
2022/05/08 04:50:41;;;;;;;7.90;7.13;;;;;;;;;;4950430;28;20179;-73
2022/05/08 04:53:06;;;;;;;7.00;6.40;;;;;;;;;;4967302;28;20189;-73
2022/05/08 04:55:32;;;;;;;7.63;6.93;;;;;;;;;;4949858;28;20178;-73
2022/05/08 04:57:57;;;;;;;7.17;6.53;;;;;;;;;;4946623;28;20183;-74
2022/05/08 05:00:22;;;;;;;9.73;8.10;;;;;;;;;;4950696;28;20184;-74
2022/05/08 05:02:47;;;;;;;8.20;7.50;;;;;;;;;;4965324;28;20243;-74
2022/05/08 05:05:12;;;;;;;8.30;7.50;;;;;;;;;;4949199;28;20195;-74
2022/05/08 05:07:39;;;;;;;8.60;7.80;;;;;;;;;;4945679;28;20207;-74
2022/05/08 05:10:05;;;;;;;8.77;7.90;;;;;;;;;;4950344;28;20246;-74
2022/05/08 05:12:30;;;;;;;9.47;8.43;;;;;;;;;;4957992;28;20174;-73
2022/05/08 05:14:55;;;;;;;8.40;7.43;;;;;;;;;;4947822;28;20207;-74
2022/05/08 05:17:20;;;;;;;10.27;8.90;;;;;;;;;;4949750;28;20225;-74
2022/05/08 05:19:45;;;;;;;9.73;8.80;;;;;;;;;;4971278;28;21817;-74
2022/05/08 05:22:11;;;;;;;9.13;8.03;;;;;;;;;;4955572;28;20180;-74
2022/05/08 05:24:36;;;;;;;9.60;8.57;;;;;;;;;;4953460;28;20267;-74
2022/05/08 05:27:01;;;;;;;8.37;7.57;;;;;;;;;;4955171;28;20197;-74
2022/05/08 05:29:26;;;;;;;8.87;8.07;;;;;;;;;;4967964;28;20215;-74
2022/05/08 05:31:52;;;;;;;8.47;7.77;;;;;;;;;;4953127;28;20211;-74
2022/05/08 05:34:17;;;;;;;8.73;7.93;;;;;;;;;;4952452;28;20278;-74
2022/05/08 05:36:42;;;;;;;10.83;9.00;;;;;;;;;;4952640;28;20270;-73
2022/05/08 05:39:07;;;;;;;11.30;10.33;;;;;;;;;;4955850;28;20193;-74
2022/05/08 05:41:33;;;;;;;14.63;10.40;;;;;;;;;;4953251;28;20508;-74
2022/05/08 05:43:58;;;;;;;12.73;10.03;;;;;;;;;;4951521;28;20211;-74
2022/05/08 05:49:07;;;;;;;11.27;10.17;;;;;;;;;;4955386;28;20245;-74
2022/05/08 05:51:32;;;;;;;12.17;10.70;;;;;;;;;;4950821;28;20478;-73
2022/05/08 05:53:57;;;;;;;10.40;9.40;;;;;;;;;;4952351;28;20187;-74
2022/05/08 05:56:23;;;;;;;10.27;9.27;;;;;;;;;;4956283;28;20189;-74
2022/05/08 05:58:48;;;;;;;10.77;9.63;;;;;;;;;;4951342;28;20173;-74
2022/05/08 06:01:13;;;;;;;10.47;9.43;;;;;;;;;;4945782;28;20192;-74
2022/05/08 06:03:38;;;;;;;11.27;10.13;;;;;;;;;;4957874;28;20197;-73
2022/05/08 06:06:04;;;;;;;11.37;9.87;;;;;;;;;;4955495;28;20177;-74
2022/05/08 06:08:29;;;;;;;11.53;10.33;;;;;;;;;;4969075;28;20200;-74
2022/05/08 06:10:54;;;;;;;11.33;10.33;;;;;;;;;;4951576;28;20215;-74
2022/05/08 06:13:21;;;;;;;10.17;9.27;;;;;;;;;;4946778;28;20250;-74
2022/05/08 06:15:46;;;;;;;11.63;10.43;;;;;;;;;;4959278;28;20183;-73
2022/05/08 06:18:12;;;;;;;11.67;9.77;;;;;;;;;;4955061;28;20182;-74
2022/05/08 06:20:38;;;;;;;11.30;10.20;;;;;;;;;;4967120;28;20181;-74
2022/05/08 06:23:03;;;;;;;12.30;11.10;;;;;;;;;;4951604;28;20203;-74
2022/05/08 06:25:29;;;;;;;11.77;10.67;;;;;;;;;;4949755;28;20184;-74
2022/05/08 06:27:54;;;;;;;10.20;9.20;;;;;;;;;;4954100;28;20209;-74
2022/05/08 06:30:19;;;;;;;11.87;10.77;;;;;;;;;;4948547;28;20197;-74
2022/05/08 06:32:45;;;;;;;11.27;10.17;;;;;;;;;;4955169;28;20208;-74
2022/05/08 06:35:10;;;;;;;10.30;9.30;;;;;;;;;;4950419;28;20190;-74
2022/05/08 06:37:35;;;;;;;9.43;8.40;;;;;;;;;;4970273;28;20284;-74
2022/05/08 06:40:00;;;;;;;11.37;9.40;;;;;;;;;;4953360;28;20182;-73
2022/05/08 06:42:25;;;;;;;9.37;8.47;;;;;;;;;;4953931;28;20239;-74
2022/05/08 06:44:51;;;;;;;9.70;8.57;;;;;;;;;;4951601;28;20183;-74
2022/05/08 06:47:16;;;;;;;11.67;8.17;;;;;;;;;;4956878;28;20237;-74
2022/05/08 06:49:41;;;;;;;8.43;7.63;;;;;;;;;;4951698;28;20211;-74
2022/05/08 06:52:06;;;;;;;9.40;7.90;;;;;;;;;;4953692;28;20189;-74
2022/05/08 06:54:31;;;;;;;9.67;8.73;;;;;;;;;;4966786;28;20166;-73
2022/05/08 06:56:59;;;;;;;8.60;7.80;;;;;;;;;;4952730;28;20183;-74
2022/05/08 07:02:10;;;;;;;8.90;8.10;;;;;;;;;;4945400;28;20194;-74
2022/05/08 07:04:35;;;;;;;8.57;7.83;;;;;;;;;;4954412;28;20240;-74
2022/05/08 07:07:01;;;;;;;9.93;8.67;;;;;;;;;;4950353;28;20184;-74
2022/05/08 07:09:26;;;;;;;8.33;7.40;;;;;;;;;;4953435;28;20201;-74
2022/05/08 07:11:51;;;;;;;8.03;7.33;;;;;;;;;;4950899;28;20207;-74
2022/05/08 07:14:16;;;;;;;9.00;7.60;;;;;;;;;;4952800;28;20245;-74
2022/05/08 07:16:42;;;;;;;8.40;7.70;;;;;;;;;;4959005;28;20199;-74
2022/05/08 07:19:07;;;;;;;7.10;6.50;;;;;;;;;;4947248;28;20250;-74
2022/05/08 07:21:32;;;;;;;7.97;7.17;;;;;;;;;;4952806;28;20261;-74
2022/05/08 07:23:58;;;;;;;8.70;7.30;;;;;;;;;;4960730;28;20208;-74
2022/05/08 07:26:23;;;;;;;8.63;7.73;;;;;;;;;;4950810;28;20250;-74
2022/05/08 07:28:48;;;;;;;8.50;7.70;;;;;;;;;;4957896;28;20231;-75
2022/05/08 07:31:14;;;;;;;9.23;7.50;;;;;;;;;;4950778;28;20195;-74
2022/05/08 07:33:39;;;;;;;8.67;7.70;;;;;;;;;;4950152;28;20239;-74
2022/05/08 07:36:14;;;;;;;8.20;7.40;;;;;;;;;;4945886;28;20195;-75
2022/05/08 07:38:40;;;;;;;8.77;7.97;;;;;;;;;;4950570;28;20236;-74
2022/05/08 07:41:05;;;;;;;9.13;8.23;;;;;;;;;;4944592;28;20189;-74
2022/05/08 07:43:30;;;;;;;8.57;7.80;;;;;;;;;;4952334;28;20190;-75
2022/05/08 07:45:56;;;;;;;8.27;7.57;;;;;;;;;;4947763;28;20224;-74
2022/05/08 07:48:21;;;;;;;8.73;7.93;;;;;;;;;;4945555;28;20199;-74
2022/05/08 07:50:46;;;;;;;8.03;7.33;;;;;;;;;;4949218;28;20192;-74
2022/05/08 07:53:12;;;;;;;11.90;9.93;;;;;;;;;;4950008;28;20480;-75
2022/05/08 07:55:38;;;;;;;7.80;7.10;;;;;;;;;;4955960;28;20181;-74
2022/05/08 07:58:03;;;;;;;8.10;7.30;;;;;;;;;;4949135;28;20243;-75
2022/05/08 08:00:28;;;;;;;7.97;7.27;;;;;;;;;;4946171;28;20250;-74
2022/05/08 08:02:53;;;;;;;10.10;8.23;;;;;;;;;;4952041;28;20246;-74
2022/05/08 08:05:19;;;;;;;8.00;7.30;;;;;;;;;;4950447;28;20226;-74
2022/05/08 08:07:44;;;;;;;11.57;7.73;;;;;;;;;;4950123;28;20233;-74
2022/05/08 08:10:09;;;;;;;8.20;7.30;;;;;;;;;;4948155;28;20196;-74
2022/05/08 08:12:34;;;;;;;8.50;7.70;;;;;;;;;;4965820;28;20170;-74
2022/05/08 08:15:00;;;;;;;7.80;6.37;;;;;;;;;;4949660;28;20180;-74
2022/05/08 08:17:25;;;;;;;8.80;7.90;;;;;;;;;;4947096;28;20209;-75
2022/05/08 08:19:50;;;;;;;8.37;7.50;;;;;;;;;;4947303;28;20213;-74
2022/05/08 08:22:16;;;;;;;9.03;8.07;;;;;;;;;;4952749;28;20251;-75
2022/05/08 08:24:41;;;;;;;8.77;7.87;;;;;;;;;;4946912;28;20197;-75
2022/05/08 08:27:07;;;;;;;8.93;7.40;;;;;;;;;;4947578;28;20191;-74
2022/05/08 08:29:32;;;;;;;7.80;7.10;;;;;;;;;;4945564;28;20206;-74
2022/05/08 08:31:57;;;;;;;8.90;7.97;;;;;;;;;;4942431;28;20184;-75
2022/05/08 08:34:22;;;;;;;8.50;7.70;;;;;;;;;;4951506;28;20226;-74
2022/05/08 08:36:49;;;;;;;13.23;9.53;;;;;;;;;;4953248;28;20185;-74
2022/05/08 08:39:14;;;;;;;8.23;7.43;;;;;;;;;;4951747;28;20185;-74
2022/05/08 08:41:42;;;;;;;8.87;6.67;;;;;;;;;;4950702;28;20209;-75
2022/05/08 08:49:50;;;;;;;8.30;7.50;;;;;;;;;;4946425;28;20241;-74
2022/05/08 08:52:16;;;;;;;8.20;7.40;;;;;;;;;;4950268;28;20188;-75
2022/05/08 08:54:42;;;;;;;10.67;6.83;;;;;;;;;;4949890;28;20253;-74
2022/05/08 08:57:07;;;;;;;8.20;7.50;;;;;;;;;;4952944;28;20182;-74
2022/05/08 08:59:32;;;;;;;7.03;6.40;;;;;;;;;;4952966;28;20194;-75
2022/05/08 09:01:57;;;;;;;8.03;7.23;;;;;;;;;;4955488;28;20193;-75
2022/05/08 09:04:23;;;;;;;9.63;8.23;;;;;;;;;;4955607;28;20279;-74
2022/05/08 09:06:48;;;;;;;8.87;7.87;;;;;;;;;;4953081;28;20201;-74
2022/05/08 09:09:23;;;;;;;7.80;7.10;;;;;;;;;;4950076;28;20217;-75
2022/05/08 09:11:49;;;;;;;8.00;6.90;;;;;;;;;;4949817;28;20192;-74
2022/05/08 09:14:30;;;;;;;9.33;7.17;;;;;;;;;;4953358;28;20278;-75
2022/05/08 09:16:56;;;;;;;9.50;8.13;;;;;;;;;;4955449;28;20181;-74
2022/05/08 09:19:36;;;;;;;7.30;6.70;;;;;;;;;;4949364;28;20185;-74
2022/05/08 09:22:03;;;;;;;7.07;6.43;;;;;;;;;;4951125;28;20244;-74
2022/05/08 09:24:30;;;;;;;8.20;7.40;;;;;;;;;;4951599;28;20212;-74
2022/05/08 09:27:12;;;;;;;7.30;6.63;;;;;;;;;;4947329;28;20193;-74
2022/05/08 09:29:37;;;;;;;8.10;7.23;;;;;;;;;;4964455;28;20269;-74
2022/05/08 09:32:03;;;;;;;8.90;7.87;;;;;;;;;;4951124;28;20179;-75
2022/05/08 09:34:28;;;;;;;6.97;6.37;;;;;;;;;;4953409;28;20244;-74
2022/05/08 09:37:06;;;;;;;7.73;7.13;;;;;;;;;;4951604;28;20194;-75
2022/05/08 09:39:31;;;;;;;8.23;7.43;;;;;;;;;;4954720;28;20192;-75
2022/05/08 09:41:56;;;;;;;7.50;6.80;;;;;;;;;;4953610;28;20181;-74
2022/05/08 09:44:22;;;;;;;7.50;6.67;;;;;;;;;;4952541;28;20287;-75
2022/05/08 09:46:48;;;;;;;6.33;5.83;;;;;;;;;;4956848;28;20189;-75
2022/05/08 09:49:20;;;;;;;8.30;7.20;;;;;;;;;;4948925;28;20196;-75
2022/05/08 09:51:46;;;;;;;7.27;6.57;;;;;;;;;;4964097;28;20184;-75
2022/05/08 09:54:12;;;;;;;7.70;7.00;;;;;;;;;;4951736;28;20188;-74
2022/05/08 09:56:37;;;;;;;7.83;7.13;;;;;;;;;;4951578;28;20187;-74
2022/05/08 09:59:06;;;;;;;7.80;6.53;;;;;;;;;;4953943;28;20210;-75
2022/05/08 10:01:31;;;;;;;6.83;6.13;;;;;;;;;;4947680;28;20182;-75
2022/05/08 10:03:56;;;;;;;8.40;6.13;;;;;;;;;;4949128;28;20193;-75
2022/05/08 10:06:22;;;;;;;6.93;5.70;;;;;;;;;;4955536;28;20186;-75
2022/05/08 10:08:48;;;;;;;6.03;5.43;;;;;;;;;;4954944;28;20195;-75
2022/05/08 10:14:03;;;;;;;5.80;5.30;;;;;;;;;;4943769;28;20215;-75
2022/05/08 10:16:47;;;;;;;7.57;5.73;;;;;;;;;;4952734;28;20186;-75
2022/05/08 10:19:27;;;;;;;6.90;4.37;;;;;;;;;;4959082;28;20190;-74
2022/05/08 10:22:13;;;;;;;6.70;4.77;;;;;;;;;;4964826;28;20245;-75
2022/05/08 10:24:47;;;;;;;7.13;5.73;;;;;;;;;;4948567;28;20183;-75
2022/05/08 10:27:14;;;;;;;5.87;5.33;;;;;;;;;;4957121;28;20204;-75
2022/05/08 10:29:40;;;;;;;5.77;5.17;;;;;;;;;;4950999;28;20216;-74
2022/05/08 10:32:13;;;;;;;4.77;4.30;;;;;;;;;;4951742;28;20196;-74
2022/05/08 10:34:39;;;;;;;7.33;5.10;;;;;;;;;;4953319;28;20241;-74
2022/05/08 10:37:13;;;;;;;6.10;5.30;;;;;;;;;;4951516;28;20189;-74
2022/05/08 10:39:42;;;;;;;5.37;4.87;;;;;;;;;;4954411;28;20190;-74
2022/05/08 10:42:26;;;;;;;6.37;5.73;;;;;;;;;;4949417;28;20183;-75
2022/05/08 10:44:51;;;;;;;5.93;5.10;;;;;;;;;;4948641;28;20185;-75
2022/05/08 10:47:32;;;;;;;9.17;5.57;;;;;;;;;;4952620;28;20182;-75
2022/05/08 10:49:57;;;;;;;6.10;5.20;;;;;;;;;;4960181;28;20215;-74
2022/05/08 10:52:22;;;;;;;7.00;5.40;;;;;;;;;;4950627;28;20244;-74
2022/05/08 10:54:58;;;;;;;6.03;5.17;;;;;;;;;;4957956;28;20186;-75
2022/05/08 10:57:29;;;;;;;8.37;5.83;;;;;;;;;;4951940;28;20184;-74
2022/05/08 10:59:55;;;;;;;6.33;5.73;;;;;;;;;;4975523;28;20182;-74
2022/05/08 11:02:39;;;;;;;5.97;5.37;;;;;;;;;;4964506;28;20190;-74
2022/05/08 11:05:05;;;;;;;7.40;5.40;;;;;;;;;;4950704;28;20193;-75
2022/05/08 11:07:31;;;;;;;5.77;5.13;;;;;;;;;;4951101;28;20205;-75
2022/05/08 11:09:56;;;;;;;5.93;5.30;;;;;;;;;;4958605;28;20225;-75
2022/05/08 11:12:21;;;;;;;6.37;5.77;;;;;;;;;;4957020;28;20182;-74
2022/05/08 11:14:46;;;;;;;5.30;4.63;;;;;;;;;;4966659;28;20173;-75
2022/05/08 11:17:15;;;;;;;5.67;5.13;;;;;;;;;;4972129;28;20237;-75
2022/05/08 11:19:50;;;;;;;6.87;5.57;;;;;;;;;;4955587;28;20201;-74
2022/05/08 11:22:16;;;;;;;5.97;5.30;;;;;;;;;;4957566;28;20316;-74
2022/05/08 11:24:42;;;;;;;10.40;6.45;;;;;;;;;;4954197;28;20214;-75
2022/05/08 11:27:14;;;;;;;6.13;5.43;;;;;;;;;;4960718;28;20182;-74
2022/05/08 11:29:48;;;;;;;6.43;5.83;;;;;;;;;;4960053;28;20203;-75
2022/05/08 11:38:02;;;;;;;7.23;6.50;;;;;;;;;;4954684;28;20328;-75
2022/05/08 11:40:28;;;;;;;7.60;6.67;;;;;;;;;;4957632;28;20186;-75
2022/05/08 11:42:53;;;;;;;6.63;6.00;;;;;;;;;;4963940;28;20186;-75
2022/05/08 11:45:18;;;;;;;6.07;5.57;;;;;;;;;;4960032;28;20185;-75
2022/05/08 11:47:53;;;;;;;6.93;6.23;;;;;;;;;;4950852;28;20171;-74
2022/05/08 11:50:19;;;;;;;6.77;6.17;;;;;;;;;;4951129;28;20245;-75
2022/05/08 11:52:44;;;;;;;7.57;6.27;;;;;;;;;;4977371;28;20187;-75
2022/05/08 11:55:09;;;;;;;6.43;5.83;;;;;;;;;;4943697;28;20235;-75
2022/05/08 11:57:42;;;;;;;6.40;5.80;;;;;;;;;;4958964;28;20177;-75
2022/05/08 12:00:11;;;;;;;8.30;6.27;;;;;;;;;;4956458;28;20249;-75
2022/05/08 12:02:44;;;;;;;6.90;6.30;;;;;;;;;;4948875;28;20259;-75
2022/05/08 12:05:16;;;;;;;9.80;6.30;;;;;;;;;;4943386;28;20179;-75
2022/05/08 12:07:42;;;;;;;6.40;5.87;;;;;;;;;;4952403;28;20269;-75
2022/05/08 12:10:10;;;;;;;7.27;5.97;;;;;;;;;;4972855;28;20301;-75
2022/05/08 12:12:37;;;;;;;7.07;6.03;;;;;;;;;;4955911;28;20257;-75
2022/05/08 12:15:06;;;;;;;7.13;6.33;;;;;;;;;;4960711;28;20257;-74
2022/05/08 12:17:50;;;;;;;6.90;6.30;;;;;;;;;;4952481;28;20188;-75
2022/05/08 12:20:17;;;;;;;6.80;6.20;;;;;;;;;;4953378;28;20188;-75
2022/05/08 12:22:44;;;;;;;7.70;7.00;;;;;;;;;;4957777;28;20222;-74
2022/05/08 12:25:10;;;;;;;6.93;6.33;;;;;;;;;;4965886;28;20307;-75
2022/05/08 12:27:35;;;;;;;7.93;6.90;;;;;;;;;;4960993;28;20186;-75
2022/05/08 12:30:01;;;;;;;6.40;5.80;;;;;;;;;;4950639;28;20521;-75
2022/05/08 12:32:27;;;;;;;8.53;7.17;;;;;;;;;;4964282;28;20283;-75
2022/05/08 12:34:59;;;;;;;7.73;5.40;;;;;;;;;;4943449;28;20757;-75
2022/05/08 12:37:24;;;;;;;8.30;6.70;;;;;;;;;;4953757;28;21606;-75
2022/05/08 12:39:49;;;;;;;7.50;6.83;;;;;;;;;;4953118;28;20193;-75
2022/05/08 12:42:15;;;;;;;6.63;6.13;;;;;;;;;;4960976;28;20196;-74
2022/05/08 12:44:40;;;;;;;6.23;5.73;;;;;;;;;;4953213;28;20184;-75
2022/05/08 12:47:06;;;;;;;7.50;5.30;;;;;;;;;;4951909;29;20270;-75
2022/05/08 12:49:32;;;;;;;6.13;5.67;;;;;;;;;;4956337;28;20212;-75
2022/05/08 12:51:58;;;;;;;6.27;5.77;;;;;;;;;;4969109;28;20243;-75
2022/05/08 12:54:23;;;;;;;7.43;6.67;;;;;;;;;;4959449;28;20603;-75
2022/05/08 12:56:49;;;;;;;6.70;6.10;;;;;;;;;;4952094;28;20208;-75
2022/05/08 13:01:58;;;;;;;6.13;5.63;;;;;;;;;;4962548;28;20202;-75
2022/05/08 13:04:24;;;;;;;6.13;5.53;;;;;;;;;;4951514;28;20196;-74
2022/05/08 13:06:49;;;;;;;7.47;5.27;;;;;;;;;;4951563;28;20271;-75
2022/05/08 13:09:14;;;;;;;5.73;5.20;;;;;;;;;;4952092;28;20227;-74
2022/05/08 13:11:41;;;;;;;6.70;5.47;;;;;;;;;;4960730;28;20174;-75
2022/05/08 13:14:06;;;;;;;6.30;5.30;;;;;;;;;;4953306;28;20182;-75
2022/05/08 13:16:32;;;;;;;6.40;4.90;;;;;;;;;;4953970;28;20193;-75
2022/05/08 13:18:57;;;;;;;5.87;5.40;;;;;;;;;;4945249;28;20226;-75
2022/05/08 13:21:22;;;;;;;5.63;5.13;;;;;;;;;;4947010;28;20216;-75
2022/05/08 13:23:50;;;;;;;5.50;5.03;;;;;;;;;;4942506;28;20178;-75
2022/05/08 13:26:15;;;;;;;6.53;5.93;;;;;;;;;;4949086;28;20185;-74
2022/05/08 13:28:41;;;;;;;5.43;4.77;;;;;;;;;;4943877;28;20199;-75
2022/05/08 13:31:06;;;;;;;5.93;4.90;;;;;;;;;;4949227;28;20189;-74
2022/05/08 13:33:32;;;;;;;7.73;5.30;;;;;;;;;;4950762;28;20238;-75
2022/05/08 13:35:57;;;;;;;8.10;5.20;;;;;;;;;;4949503;28;20184;-75
2022/05/08 13:38:24;;;;;;;5.73;5.23;;;;;;;;;;4952938;28;20275;-75
2022/05/08 13:40:49;;;;;;;14.37;4.70;;;;;;;;;;4946286;28;20331;-75
2022/05/08 13:43:15;;;;;;;5.57;4.77;;;;;;;;;;4946849;28;20250;-75
2022/05/08 13:45:41;;;;;;;5.83;4.23;;;;;;;;;;4954564;28;20178;-75
2022/05/08 13:48:06;;;;;;;4.43;4.13;;;;;;;;;;4957730;28;20182;-75
2022/05/08 13:50:31;;;;;;;4.47;4.07;;;;;;;;;;4950155;28;20189;-75
2022/05/08 13:52:57;;;;;;;5.17;4.67;;;;;;;;;;4952043;28;20184;-74
2022/05/08 13:55:22;;;;;;;4.17;3.77;;;;;;;;;;4947939;28;21513;-75
2022/05/08 13:57:49;;;;;;;4.47;3.63;;;;;;;;;;4964003;28;20267;-75
2022/05/08 14:00:14;;;;;;;6.13;4.17;;;;;;;;;;4952707;28;20178;-75
2022/05/08 14:02:40;;;;;;;3.90;3.60;;;;;;;;;;4950889;28;20272;-75
2022/05/08 14:05:06;;;;;;;4.30;3.87;;;;;;;;;;4952087;28;20194;-75
2022/05/08 14:07:31;;;;;;;4.70;4.30;;;;;;;;;;4972898;28;20183;-74
2022/05/08 14:09:56;;;;;;;4.90;4.23;;;;;;;;;;4953527;28;20330;-75
2022/05/08 14:12:21;;;;;;;4.50;4.10;;;;;;;;;;4950498;28;20215;-75
2022/05/08 14:14:47;;;;;;;4.40;4.00;;;;;;;;;;4955050;28;20185;-75
2022/05/08 14:17:12;;;;;;;4.03;3.63;;;;;;;;;;4952337;28;20185;-75
2022/05/08 14:19:37;;;;;;;4.77;4.07;;;;;;;;;;4953540;28;20238;-74
2022/05/08 14:22:03;;;;;;;4.57;3.57;;;;;;;;;;4950213;28;20200;-75
2022/05/08 14:24:28;;;;;;;4.13;3.73;;;;;;;;;;4954077;28;20179;-75
2022/05/08 14:26:53;;;;;;;4.30;3.87;;;;;;;;;;4950006;28;20180;-75
2022/05/08 14:29:19;;;;;;;4.10;3.63;;;;;;;;;;4950106;28;20217;-75
2022/05/08 14:37:12;;;;;;;4.03;3.67;;;;;;;;;;4946026;28;20182;-75
2022/05/08 14:39:37;;;;;;;4.17;3.77;;;;;;;;;;4950017;28;20184;-75
2022/05/08 14:42:03;;;;;;;3.70;3.40;;;;;;;;;;4948725;28;20192;-74
2022/05/08 14:44:28;;;;;;;4.47;4.07;;;;;;;;;;4960412;28;20177;-75
2022/05/08 14:46:55;;;;;;;4.43;4.03;;;;;;;;;;4950572;28;20191;-75
2022/05/08 14:49:20;;;;;;;4.40;3.63;;;;;;;;;;4953389;28;20206;-75
2022/05/08 14:51:45;;;;;;;4.47;3.97;;;;;;;;;;4953141;28;20216;-74
2022/05/08 14:54:10;;;;;;;4.03;3.73;;;;;;;;;;4957719;28;20182;-75
2022/05/08 14:56:35;;;;;;;4.20;3.80;;;;;;;;;;4952266;28;20187;-74
2022/05/08 14:59:01;;;;;;;3.97;3.60;;;;;;;;;;4956051;28;20184;-75
2022/05/08 15:01:26;;;;;;;5.83;5.43;;;;;;;;;;4949109;28;20216;-75
2022/05/08 15:03:51;;;;;;;4.73;4.30;;;;;;;;;;4956163;28;20181;-74
2022/05/08 15:06:16;;;;;;;3.90;3.60;;;;;;;;;;4951591;28;20186;-74
2022/05/08 15:08:42;;;;;;;4.03;3.63;;;;;;;;;;4962365;28;20204;-75
2022/05/08 15:11:08;;;;;;;4.03;3.73;;;;;;;;;;4951553;28;20178;-74
2022/05/08 15:13:33;;;;;;;3.80;3.43;;;;;;;;;;4951305;28;20275;-75